Haciendas El Zorzal, Puerto Rico
Current Conditions -  °F | °C
As of 6:45 PM on Wednesday 28 Jan 2015 (Local Time) from TJIG Reporting Station
Scattered Clouds Scattered Clouds  
Wind Chill: 81°   Ceiling: Unl
Heat Index: 83°   Visibility: 10mi
Dew Point: 68°   Wind: 12mph
Humidity: 65%   Direction: 150°SSE
Pressure: 29.98"   Gusts: NA
Location:  18.1892°N, 66.1134°W
Report Text: TJIG 282245Z 15010KT 10SM SCT040 27/20 A2998 RMK RY09 IN USE ATIS N
Loading
Personal Weather Stations






























Interactive Weather Map New forecast layout! Learn more

10-Day Weather Forecast

Advertisements
Track Severe Weather on mobile